Time;durP1;ratioP1;P1;durP2;ratioP2;P2;SDS_P1;SDS_P2;PMS_P1;PMS_P2;Temp;Humidity;BMP_temperature;BMP_pressure;BME280_temperature;BME280_humidity;BME280_pressure;Samples;Min_cycle;Max_cycle;Signal;HPM_P1;HPM_P2
2022/10/25 00:03:00;;;;;;;;;32.25;30.00;;;;;19.34;77.67;98653.25;6072853;28;99089;-78
2022/10/25 00:06:03;;;;;;;;;33.00;29.80;;;;;19.37;77.31;98660.88;6091666;28;96386;-76
2022/10/25 00:09:08;;;;;;;;;32.00;28.00;;;;;19.39;77.31;98660.59;6103506;28;96542;-75
2022/10/25 00:12:11;;;;;;;;;32.40;29.80;;;;;19.44;77.30;98655.13;6073203;28;97597;-76
2022/10/25 00:15:15;;;;;;;;;31.00;28.00;;;;;19.44;76.94;98661.41;6093750;28;96331;-78
2022/10/25 00:18:18;;;;;;;;;30.00;29.00;;;;;19.46;77.43;98653.72;6091631;28;97139;-78
2022/10/25 00:21:22;;;;;;;;;30.60;26.40;;;;;19.48;76.84;98656.16;6092711;28;97544;-78
2022/10/25 00:24:27;;;;;;;;;30.00;27.00;;;;;19.53;76.60;98655.31;6093006;28;96360;-78
2022/10/25 00:27:30;;;;;;;;;29.60;26.00;;;;;19.55;76.44;98656.66;6093026;28;96320;-77
2022/10/25 00:30:34;;;;;;;;;27.00;24.20;;;;;19.59;76.48;98654.19;6104953;28;96586;-78
2022/10/25 00:33:38;;;;;;;;;26.60;24.60;;;;;19.62;76.10;98650.88;6092121;28;96629;-78
2022/10/25 00:36:41;;;;;;;;;26.50;24.50;;;;;19.63;76.38;98649.75;6092603;28;96163;-78
2022/10/25 00:39:47;;;;;;;;;26.80;24.20;;;;;19.60;75.75;98653.88;6092586;28;98049;-78
2022/10/25 00:42:50;;;;;;;;;26.80;25.00;;;;;19.60;76.20;98647.59;6074493;28;96970;-78
2022/10/25 00:45:53;;;;;;;;;24.60;23.80;;;;;19.59;76.74;98643.25;6089983;28;96802;-78
2022/10/25 00:49:01;;;;;;;;;26.60;25.60;;;;;19.59;76.61;98640.50;6092235;28;96459;-77
2022/10/25 00:52:08;;;;;;;;;26.00;23.00;;;;;19.54;76.87;98648.75;6090857;28;96814;-78
2022/10/25 00:55:16;;;;;;;;;27.00;24.00;;;;;19.52;77.10;98656.41;6077470;28;96713;-78
2022/10/25 00:58:23;;;;;;;;;27.00;24.00;;;;;19.51;77.17;98652.84;6092359;28;96715;-77
2022/10/25 01:01:27;;;;;;;;;27.20;26.40;;;;;19.56;77.22;98657.47;6092322;28;96895;-77
2022/10/25 01:04:33;;;;;;;;;24.00;22.00;;;;;19.58;77.12;98656.09;6092579;28;96600;-77
2022/10/25 01:07:37;;;;;;;;;28.00;24.00;;;;;19.57;77.09;98659.09;6075164;28;96772;-77
2022/10/25 01:10:42;;;;;;;;;26.00;22.00;;;;;19.54;77.57;98656.97;6089261;28;97177;-78
2022/10/25 01:13:46;;;;;;;;;25.50;21.50;;;;;19.59;77.21;98657.72;6085201;28;97156;-74
2022/10/25 01:16:58;;;;;;;;;29.50;23.00;;;;;19.60;77.27;98634.72;6073065;28;98854;-78
2022/10/25 01:20:21;;;;;;;;;26.50;23.50;;;;;19.61;76.90;98643.75;6084550;28;96464;-78
2022/10/25 01:23:43;;;;;;;;;25.00;23.00;;;;;19.61;77.43;98650.03;6069017;28;96315;-77
2022/10/25 01:27:30;;;;;;;;;23.00;21.20;;;;;19.62;77.46;98645.41;6088552;28;96463;-77
2022/10/25 01:30:59;;;;;;;;;24.20;21.00;;;;;19.66;76.73;98641.78;6081427;28;96882;-77
2022/10/25 01:34:10;;;;;;;;;23.00;21.00;;;;;19.62;76.63;98642.66;6082953;28;96886;-77
2022/10/25 01:37:23;;;;;;;;;23.60;20.60;;;;;19.68;77.02;98664.22;6089966;28;96308;-77
2022/10/25 01:40:34;;;;;;;;;24.60;23.00;;;;;19.65;77.26;98669.41;6088753;28;96338;-77
2022/10/25 01:43:45;;;;;;;;;21.60;20.00;;;;;19.63;77.33;98660.69;6072135;28;97387;-77
2022/10/25 01:46:54;;;;;;;;;23.80;21.00;;;;;19.61;77.62;98666.44;6088105;28;97023;-78
2022/10/25 01:50:02;;;;;;;;;23.00;21.00;;;;;19.46;77.25;98639.22;6088884;28;96536;-78
2022/10/25 01:53:05;;;;;;;;;22.60;21.60;;;;;19.61;77.76;98660.16;6090118;28;96797;-77
2022/10/25 01:56:09;;;;;;;;;23.20;20.20;;;;;19.62;77.33;98664.53;6072145;28;96814;-77
2022/10/25 01:59:38;;;;;;;;;25.00;23.00;;;;;19.58;77.51;98666.22;6089203;28;96368;-77
2022/10/25 02:03:01;;;;;;;;;22.00;20.00;;;;;19.61;77.35;98662.91;6071857;28;96652;-77
2022/10/25 02:06:20;;;;;;;;;24.00;22.00;;;;;19.58;77.54;98656.09;6089412;28;96387;-77
2022/10/25 02:09:31;;;;;;;;;23.75;21.00;;;;;19.55;77.94;98661.31;6036569;28;1513179;-77
2022/10/25 02:12:45;;;;;;;;;23.40;21.00;;;;;19.49;77.76;98665.19;6088238;28;96409;-77
2022/10/25 02:15:55;;;;;;;;;26.80;23.60;;;;;19.50;77.76;98677.78;6091468;28;97507;-77
2022/10/25 02:19:04;;;;;;;;;20.75;19.75;;;;;19.49;77.72;98674.22;6072111;28;97105;-76
2022/10/25 02:22:10;;;;;;;;;23.00;21.00;;;;;19.40;78.10;98665.75;6090742;28;96246;-77
2022/10/25 02:25:15;;;;;;;;;23.40;22.60;;;;;19.48;77.44;98677.22;6085958;28;98587;-77
2022/10/25 02:28:22;;;;;;;;;26.00;22.00;;;;;19.41;78.32;98672.84;6089114;28;96579;-77
2022/10/25 02:31:27;;;;;;;;;21.00;20.00;;;;;19.42;78.15;98671.75;6088463;28;96573;-76
2022/10/25 02:34:32;;;;;;;;;24.00;21.50;;;;;19.37;77.70;98677.25;6089517;28;96638;-77
2022/10/25 02:37:36;;;;;;;;;24.60;22.20;;;;;19.31;78.21;98685.78;6090755;28;96508;-77
2022/10/25 02:40:39;;;;;;;;;25.00;21.00;;;;;19.22;79.29;98695.66;6089939;28;97031;-72
2022/10/25 02:43:42;;;;;;;;;22.20;20.00;;;;;19.20;79.35;98686.94;6090168;28;96433;-76
2022/10/25 02:46:46;;;;;;;;;23.00;20.50;;;;;19.20;79.17;98684.22;6089447;28;96482;-76
2022/10/25 02:49:51;;;;;;;;;22.40;21.00;;;;;19.17;79.39;98685.59;6088683;28;97447;-77
2022/10/25 02:52:55;;;;;;;;;25.00;21.50;;;;;19.17;79.44;98677.38;6090772;28;96498;-77
2022/10/25 02:56:02;;;;;;;;;26.00;20.60;;;;;19.21;79.15;98678.44;6090600;28;96469;-76
2022/10/25 02:59:06;;;;;;;;;21.75;20.00;;;;;19.21;79.62;98683.91;6089926;28;96398;-77
2022/10/25 03:02:09;;;;;;;;;24.00;21.50;;;;;19.27;79.60;98673.78;6084157;28;96905;-77
2022/10/25 03:05:13;;;;;;;;;22.80;20.00;;;;;19.24;79.71;98677.09;6087798;28;96321;-75
2022/10/25 03:08:17;;;;;;;;;25.00;21.00;;;;;19.20;79.91;98676.84;6089875;28;96617;-76
2022/10/25 03:11:20;;;;;;;;;20.00;19.00;;;;;19.21;80.12;98658.50;6088720;28;96514;-74
2022/10/25 03:14:24;;;;;;;;;23.20;19.20;;;;;19.23;79.97;98662.59;6091412;28;96631;-76
2022/10/25 03:17:27;;;;;;;;;27.60;22.00;;;;;19.24;79.73;98658.78;6088572;28;96796;-76
2022/10/25 03:20:32;;;;;;;;;21.00;20.00;;;;;19.20;79.49;98656.88;6092319;28;96647;-76
2022/10/25 03:23:35;;;;;;;;;23.00;20.00;;;;;19.20;79.11;98668.66;6093047;28;96459;-76
2022/10/25 03:26:39;;;;;;;;;27.50;23.50;;;;;19.08;79.44;98665.41;6079361;28;96597;-77
2022/10/25 03:29:42;;;;;;;;;22.00;20.00;;;;;19.13;79.87;98680.97;6084932;28;96478;-75
2022/10/25 03:32:45;;;;;;;;;21.40;18.20;;;;;19.04;80.52;98683.47;6091398;28;96941;-76
2022/10/25 03:35:51;;;;;;;;;23.25;22.00;;;;;19.05;81.16;98685.13;6093690;28;96513;-77
2022/10/25 03:38:54;;;;;;;;;19.00;18.00;;;;;19.08;81.04;98681.81;6074416;28;96701;-71
2022/10/25 03:41:58;;;;;;;;;19.00;17.00;;;;;19.11;81.28;98683.19;6103682;28;97521;-76
2022/10/25 03:45:01;;;;;;;;;20.25;19.25;;;;;19.16;80.65;98692.16;6093076;28;96422;-76
2022/10/25 03:48:05;;;;;;;;;20.00;19.80;;;;;19.16;80.97;98692.16;6088501;28;96700;-75
2022/10/25 03:51:10;;;;;;;;;22.60;20.00;;;;;19.17;80.34;98693.78;6079406;28;96513;-77
2022/10/25 03:54:14;;;;;;;;;21.00;20.00;;;;;19.17;80.62;98692.97;6095184;28;96473;-77
2022/10/25 03:57:17;;;;;;;;;20.00;18.00;;;;;19.15;81.01;98700.66;6084677;28;96330;-76
2022/10/25 04:00:20;;;;;;;;;21.20;19.20;;;;;19.09;80.65;98693.56;6063914;28;96787;-77
2022/10/25 04:03:24;;;;;;;;;22.20;19.20;;;;;19.06;80.83;98700.41;6092400;28;96821;-76
2022/10/25 04:06:29;;;;;;;;;19.50;18.25;;;;;18.98;81.45;98704.53;6085211;28;96203;-76
2022/10/25 04:09:33;;;;;;;;;23.00;19.00;;;;;18.95;81.25;98687.91;6080986;28;96255;-72
2022/10/25 04:12:36;;;;;;;;;22.50;20.00;;;;;19.00;80.99;98696.91;6094499;28;97175;-75
2022/10/25 04:15:39;;;;;;;;;21.60;20.60;;;;;19.04;80.50;98697.97;6093142;28;96081;-75
2022/10/25 04:18:43;;;;;;;;;23.00;20.00;;;;;19.06;80.52;98694.13;6088255;28;97237;-75
2022/10/25 04:21:47;;;;;;;;;20.80;18.00;;;;;19.07;80.65;98701.22;6091411;28;96266;-74
2022/10/25 04:24:51;;;;;;;;;20.00;17.75;;;;;19.02;80.47;98704.78;6090528;28;96209;-77
2022/10/25 04:27:54;;;;;;;;;20.20;19.20;;;;;18.97;80.08;98694.72;6090333;28;96777;-74
2022/10/25 04:30:58;;;;;;;;;20.00;18.60;;;;;18.99;80.00;98710.84;6091204;28;96313;-76
2022/10/25 04:34:01;;;;;;;;;22.50;19.00;;;;;19.00;79.70;98705.09;6093070;28;96505;-76
2022/10/25 04:37:06;;;;;;;;;18.40;16.00;;;;;18.98;79.94;98710.00;6092333;28;96369;-75
2022/10/25 04:40:11;;;;;;;;;17.40;16.00;;;;;18.99;79.86;98705.38;6092551;28;96344;-75
2022/10/25 04:43:14;;;;;;;;;18.60;16.60;;;;;19.03;79.65;98704.53;6087401;28;96813;-76
2022/10/25 04:46:19;;;;;;;;;17.40;16.00;;;;;19.06;78.85;98697.66;6077582;28;98493;-76
2022/10/25 04:49:22;;;;;;;;;17.00;16.60;;;;;19.01;78.60;98693.03;6092730;28;96078;-77
2022/10/25 04:52:28;;;;;;;;;16.00;15.00;;;;;19.03;78.71;98701.78;6097108;28;96345;-77
2022/10/25 04:55:32;;;;;;;;;18.80;18.00;;;;;18.99;78.14;98699.91;6095680;28;96563;-76
2022/10/25 04:58:36;;;;;;;;;18.40;16.80;;;;;18.91;78.77;98703.22;6096205;28;96305;-75
2022/10/25 05:01:40;;;;;;;;;17.00;17.00;;;;;18.96;78.86;98709.47;6094869;28;96535;-76
2022/10/25 05:04:43;;;;;;;;;20.80;18.20;;;;;18.95;78.40;98712.50;6095182;28;96920;-76
2022/10/25 05:07:49;;;;;;;;;18.80;17.20;;;;;18.97;78.30;98716.56;6091260;28;97849;-75
2022/10/25 05:10:54;;;;;;;;;17.00;15.60;;;;;18.98;78.70;98720.13;6085646;28;96678;-76
2022/10/25 05:13:58;;;;;;;;;15.40;14.40;;;;;18.95;78.07;98716.03;6093095;28;96829;-76
2022/10/25 05:17:01;;;;;;;;;20.00;19.00;;;;;18.92;78.49;98713.03;6098443;28;96486;-76
2022/10/25 05:20:06;;;;;;;;;16.00;14.25;;;;;18.57;78.55;98656.66;6076258;28;96348;-76
2022/10/25 05:23:11;;;;;;;;;20.00;18.00;;;;;18.88;78.67;98701.03;6095305;28;96677;-76
2022/10/25 05:26:16;;;;;;;;;20.00;18.50;;;;;18.87;78.43;98705.69;6091938;28;96836;-75
2022/10/25 05:29:20;;;;;;;;;20.60;19.00;;;;;18.83;78.35;98696.41;6095944;28;96619;-77
2022/10/25 05:32:24;;;;;;;;;19.50;17.75;;;;;18.86;78.32;98700.53;6098243;28;96210;-74
2022/10/25 05:35:27;;;;;;;;;23.75;17.75;;;;;18.87;78.25;98700.22;6089456;28;96899;-74
2022/10/25 05:38:32;;;;;;;;;18.00;17.00;;;;;18.87;78.00;98702.94;6091646;28;96375;-76
2022/10/25 05:41:40;;;;;;;;;16.60;15.00;;;;;18.90;77.92;98712.50;6097080;28;96273;-73
2022/10/25 05:44:43;;;;;;;;;19.20;18.00;;;;;18.90;77.69;98710.59;6092535;28;97769;-75
2022/10/25 05:47:46;;;;;;;;;20.50;18.50;;;;;18.84;77.50;98725.38;6091947;28;96231;-72
2022/10/25 05:50:50;;;;;;;;;22.00;19.00;;;;;18.77;77.29;98718.56;6093139;28;97600;-75
2022/10/25 05:54:09;;;;;;;;;19.40;18.40;;;;;18.71;77.43;98716.97;6084372;28;97277;-73
2022/10/25 05:57:13;;;;;;;;;21.00;19.60;;;;;18.70;77.52;98727.06;6091131;28;96731;-75
2022/10/25 06:00:17;;;;;;;;;19.80;17.80;;;;;18.70;77.83;98727.06;6075063;28;96972;-75
2022/10/25 06:03:20;;;;;;;;;18.60;16.60;;;;;18.75;77.29;98727.06;6093303;28;96383;-75
2022/10/25 06:06:24;;;;;;;;;19.00;18.00;;;;;18.87;77.00;98733.00;6095380;28;96761;-69
2022/10/25 06:09:29;;;;;;;;;19.60;18.60;;;;;19.53;75.13;98740.09;6088129;28;96656;-75
2022/10/25 06:12:32;;;;;;;;;23.00;22.00;;;;;20.76;71.31;98745.03;6102078;28;97690;-76
2022/10/25 06:15:37;;;;;;;;;24.00;21.00;;;;;22.14;63.53;98755.78;6105214;28;96279;-75
2022/10/25 06:18:40;;;;;;;;;20.00;18.00;;;;;22.60;59.43;98761.28;6106465;28;96268;-76
2022/10/25 06:21:44;;;;;;;;;15.00;14.00;;;;;22.18;59.85;98768.63;6089599;28;96453;-76
2022/10/25 06:24:48;;;;;;;;;16.00;13.40;;;;;21.55;60.79;98755.25;6112929;28;96412;-76
2022/10/25 06:27:52;;;;;;;;;17.60;16.00;;;;;21.18;62.71;98766.19;6086476;28;96927;-75
2022/10/25 06:31:00;;;;;;;;;16.40;16.00;;;;;20.86;64.05;98758.63;6098442;28;96257;-76
2022/10/25 06:34:04;;;;;;;;;17.80;15.60;;;;;20.59;65.46;98767.41;6109605;28;96449;-75
2022/10/25 06:37:07;;;;;;;;;14.00;12.80;;;;;20.46;66.94;98767.28;6083980;28;96845;-76
2022/10/25 06:40:12;;;;;;;;;15.00;15.00;;;;;20.22;66.85;98770.75;6103057;28;96269;-77
2022/10/25 06:43:16;;;;;;;;;17.00;16.00;;;;;20.12;68.18;98779.03;6103295;28;96067;-77
2022/10/25 06:46:22;;;;;;;;;16.20;14.60;;;;;20.00;68.46;98781.31;6084878;28;96392;-77
2022/10/25 06:49:26;;;;;;;;;14.20;13.80;;;;;19.85;68.93;98773.22;6098720;28;96432;-76
2022/10/25 06:52:29;;;;;;;;;19.00;16.00;;;;;19.79;69.48;98790.78;6098189;28;96321;-76
2022/10/25 06:55:34;;;;;;;;;17.00;15.60;;;;;20.13;69.71;98790.81;6082202;28;96372;-75
2022/10/25 06:58:38;;;;;;;;;14.40;13.00;;;;;22.61;60.58;98791.19;6095088;28;96342;-75
2022/10/25 07:01:42;;;;;;;;;14.60;12.80;;;;;23.18;56.76;98791.78;6095878;28;96347;-77
2022/10/25 07:04:45;;;;;;;;;15.00;14.00;;;;;23.99;53.30;98790.84;6098101;28;96276;-74
2022/10/25 07:07:49;;;;;;;;;13.40;13.00;;;;;25.36;48.37;98804.59;6096630;28;96275;-77
2022/10/25 07:10:55;;;;;;;;;12.00;11.60;;;;;24.89;48.09;98803.47;6094709;28;96961;-77
2022/10/25 07:14:00;;;;;;;;;11.00;10.75;;;;;24.23;49.87;98809.03;6099224;28;96367;-76
2022/10/25 07:17:03;;;;;;;;;15.50;13.00;;;;;23.55;52.20;98818.28;6100708;28;96291;-76
2022/10/25 07:20:07;;;;;;;;;13.00;12.00;;;;;22.96;54.11;98825.50;6095407;28;96726;-76
2022/10/25 07:23:11;;;;;;;;;13.60;12.00;;;;;22.43;55.60;98823.09;6093743;28;96302;-76
2022/10/25 07:26:17;;;;;;;;;11.00;10.00;;;;;21.96;57.26;98826.06;6099000;28;96262;-76
2022/10/25 07:29:21;;;;;;;;;16.25;13.50;;;;;21.62;58.01;98818.00;6101488;28;97101;-77
2022/10/25 07:32:25;;;;;;;;;13.00;12.00;;;;;21.33;59.93;98833.75;6083996;28;96877;-77
2022/10/25 07:35:28;;;;;;;;;10.75;10.00;;;;;21.34;60.27;98822.50;6102486;28;96284;-75
2022/10/25 07:38:37;;;;;;;;;11.00;10.50;;;;;21.26;59.96;98805.88;6086070;28;96649;-76
2022/10/25 07:41:42;;;;;;;;;11.00;10.00;;;;;21.55;59.94;98801.09;6099568;28;98594;-76
2022/10/25 07:44:45;;;;;;;;;11.50;11.00;;;;;21.68;59.38;98796.81;6100452;28;96820;-76
2022/10/25 07:47:53;;;;;;;;;12.40;11.00;;;;;21.86;59.58;98785.00;6101026;28;96392;-76
2022/10/25 07:50:57;;;;;;;;;11.75;11.00;;;;;22.71;57.58;98785.56;6103477;28;96387;-76
2022/10/25 07:54:01;;;;;;;;;14.60;12.00;;;;;23.02;55.66;98776.72;6104476;28;96443;-76
2022/10/25 07:57:06;;;;;;;;;14.00;13.00;;;;;25.70;48.37;98784.59;6099650;28;96326;-74
2022/10/25 08:00:11;;;;;;;;;13.60;12.60;;;;;28.72;40.12;98773.72;6072619;28;96796;-75
2022/10/25 08:03:16;;;;;;;;;12.25;12.00;;;;;31.51;34.82;98780.34;6093783;28;96892;-75
2022/10/25 08:06:20;;;;;;;;;12.00;11.00;;;;;34.01;30.66;98782.66;6094058;28;96287;-74
2022/10/25 08:09:24;;;;;;;;;10.00;10.00;;;;;36.27;27.68;98792.34;6075503;28;97280;-75
2022/10/25 08:12:41;;;;;;;;;10.20;9.00;;;;;37.86;24.26;98779.69;6098168;28;96849;-75
2022/10/25 08:15:49;;;;;;;;;9.00;9.00;;;;;39.04;23.36;98769.50;6082965;28;96432;-75
2022/10/25 08:18:53;;;;;;;;;9.00;9.00;;;;;40.37;22.00;98766.53;6093520;28;96575;-74
2022/10/25 08:21:56;;;;;;;;;8.00;8.00;;;;;41.36;20.15;98759.38;6076402;28;96897;-74
2022/10/25 08:25:00;;;;;;;;;8.00;7.00;;;;;42.12;19.48;98760.41;6093587;28;96431;-73
2022/10/25 08:28:05;;;;;;;;;8.40;8.00;;;;;42.83;18.58;98755.22;6093001;28;98234;-75
2022/10/25 08:31:09;;;;;;;;;7.20;7.00;;;;;43.38;17.74;98762.78;6093470;28;96318;-74
2022/10/25 08:34:12;;;;;;;;;7.00;7.00;;;;;43.75;17.56;98756.53;6092279;28;96354;-74
2022/10/25 08:37:15;;;;;;;;;8.00;7.60;;;;;44.22;17.21;98750.34;6093237;28;96246;-71
2022/10/25 08:40:22;;;;;;;;;6.00;5.50;;;;;44.44;16.98;98745.63;6093373;28;96322;-74
2022/10/25 08:43:48;;;;;;;;;4.00;4.00;;;;;44.63;15.88;98749.50;6093608;28;96376;-74
2022/10/25 08:46:59;;;;;;;;;4.00;3.00;;;;;45.05;15.46;98768.13;6093450;28;96280;-75
2022/10/25 08:50:06;;;;;;;;;4.00;4.00;;;;;45.05;15.37;98773.81;6093298;28;96252;-74
2022/10/25 08:53:17;;;;;;;;;5.00;5.00;;;;;45.16;15.54;98779.16;6093511;28;96828;-74
2022/10/25 08:56:21;;;;;;;;;3.00;3.00;;;;;45.31;15.42;98785.94;6093055;28;96372;-75
2022/10/25 08:59:32;;;;;;;;;4.00;4.00;;;;;45.33;15.33;98786.28;6091485;28;96271;-74
2022/10/25 09:02:42;;;;;;;;;5.00;4.67;;;;;44.14;16.58;98785.91;6093429;28;96584;-75
2022/10/25 09:05:58;;;;;;;;;4.00;3.40;;;;;42.54;16.92;98781.38;6093331;28;98531;-75
2022/10/25 09:09:15;;;;;;;;;4.00;3.00;;;;;40.40;19.08;98793.16;6091408;28;96277;-75
2022/10/25 09:12:28;;;;;;;;;5.00;5.00;;;;;38.16;20.77;98788.47;6075292;28;96457;-75
2022/10/25 09:15:50;;;;;;;;;5.00;4.80;;;;;36.04;23.92;98791.81;6092967;28;96417;-75
2022/10/25 09:18:55;;;;;;;;;5.00;5.00;;;;;34.25;25.28;98790.59;6092527;28;96438;-76
2022/10/25 09:22:01;;;;;;;;;5.00;5.00;;;;;32.57;27.34;98793.81;6092946;28;96293;-75
2022/10/25 09:25:16;;;;;;;;;5.80;5.20;;;;;31.08;28.88;98788.84;6092650;28;96203;-76
2022/10/25 09:28:28;;;;;;;;;4.40;4.40;;;;;29.59;31.38;98795.63;6091081;28;96403;-76
2022/10/25 09:31:41;;;;;;;;;5.00;5.00;;;;;28.78;32.92;98802.84;6099590;28;96278;-76
2022/10/25 09:34:45;;;;;;;;;6.00;5.00;;;;;28.34;34.14;98803.63;6091501;28;96331;-75
2022/10/25 09:37:51;;;;;;;;;5.00;4.80;;;;;27.90;34.83;98800.38;6091369;28;96372;-75
2022/10/25 09:40:59;;;;;;;;;6.40;6.40;;;;;27.53;35.49;98807.63;6091801;28;96263;-75
2022/10/25 09:44:09;;;;;;;;;7.00;6.00;;;;;27.46;36.02;98810.09;6091803;28;96337;-75
2022/10/25 09:47:25;;;;;;;;;7.00;6.00;;;;;26.85;36.66;98807.88;6088125;28;96331;-75
2022/10/25 09:50:32;;;;;;;;;5.00;5.00;;;;;26.17;37.88;98802.13;6072635;28;96390;-74
2022/10/25 09:53:40;;;;;;;;;4.80;4.80;;;;;25.40;39.44;98802.03;6091781;28;96360;-74
2022/10/25 09:56:43;;;;;;;;;7.00;6.00;;;;;24.80;41.10;98797.06;6091670;28;96304;-76
2022/10/25 09:59:49;;;;;;;;;6.00;6.00;;;;;24.35;42.59;98810.09;6077044;28;96361;-76
2022/10/25 10:02:55;;;;;;;;;4.20;4.20;;;;;23.95;43.72;98817.34;6074724;28;96839;-75
2022/10/25 10:06:03;;;;;;;;;5.00;4.00;;;;;23.63;45.41;98807.34;6074071;28;97287;-73
2022/10/25 10:09:10;;;;;;;;;4.20;4.20;;;;;23.39;46.53;98811.44;6091735;28;96331;-75
2022/10/25 10:12:24;;;;;;;;;5.40;5.00;;;;;23.28;47.45;98792.38;6091784;28;96316;-75
2022/10/25 10:15:31;;;;;;;;;5.00;5.00;;;;;23.57;46.82;98799.50;6092474;28;96320;-76
2022/10/25 10:18:36;;;;;;;;;5.00;4.80;;;;;23.74;46.73;98799.69;6099542;28;96327;-74
2022/10/25 10:21:43;;;;;;;;;5.00;5.00;;;;;23.87;46.50;98800.75;6096657;28;96916;-75
2022/10/25 10:24:58;;;;;;;;;5.60;5.00;;;;;24.05;45.76;98800.59;6096747;28;96587;-76
2022/10/25 10:28:02;;;;;;;;;4.00;4.00;;;;;24.51;44.57;98799.50;6096408;28;96279;-74
2022/10/25 10:31:07;;;;;;;;;6.00;5.75;;;;;24.59;44.65;98815.25;6089775;28;96329;-75
2022/10/25 10:34:27;;;;;;;;;6.00;5.00;;;;;24.54;45.16;98809.88;6091009;28;96957;-74
2022/10/25 10:37:32;;;;;;;;;5.60;4.60;;;;;24.59;45.00;98812.50;6090465;28;96386;-74
2022/10/25 10:40:36;;;;;;;;;3.60;3.00;;;;;24.46;45.02;98805.94;6091107;28;96330;-74
2022/10/25 10:43:40;;;;;;;;;4.00;4.00;;;;;24.35;45.99;98820.28;6090929;28;96567;-74
2022/10/25 10:46:45;;;;;;;;;5.60;5.00;;;;;24.14;45.82;98804.22;6090317;28;96466;-74
2022/10/25 10:49:50;;;;;;;;;4.00;4.00;;;;;23.89;46.56;98788.31;6073780;28;96366;-75
2022/10/25 10:52:58;;;;;;;;;6.00;6.00;;;;;23.86;48.23;98799.13;6090408;28;96284;-74
2022/10/25 10:56:05;;;;;;;;;4.50;4.00;;;;;23.54;49.66;98802.88;6090254;28;96346;-74
2022/10/25 10:59:25;;;;;;;;;4.00;4.00;;;;;23.32;50.34;98807.16;6091212;28;96337;-75
2022/10/25 11:02:39;;;;;;;;;5.00;4.00;;;;;22.85;51.67;98780.88;6090721;28;96384;-73
2022/10/25 11:05:54;;;;;;;;;6.00;5.00;;;;;22.75;52.39;98796.75;6090040;28;96394;-74
2022/10/25 11:09:16;;;;;;;;;3.00;3.00;;;;;22.61;54.07;98801.38;6089808;28;96510;-74
2022/10/25 11:12:21;;;;;;;;;3.00;3.00;;;;;22.54;54.89;98809.19;6090552;28;96656;-75
2022/10/25 11:15:28;;;;;;;;;4.40;3.40;;;;;22.38;55.14;98811.41;6088277;28;96490;-75
2022/10/25 11:18:43;;;;;;;;;7.00;5.00;;;;;22.18;56.23;98818.03;6090114;28;96388;-75
2022/10/25 11:22:07;;;;;;;;;9.00;8.00;;;;;22.69;55.84;98815.22;6089351;28;96365;-73
2022/10/25 11:25:25;;;;;;;;;6.40;5.00;;;;;23.98;51.73;98822.25;6088020;28;96453;-75
2022/10/25 11:28:44;;;;;;;;;6.40;6.40;;;;;25.87;46.81;98812.19;6086910;28;96487;-76
2022/10/25 11:32:00;;;;;;;;;7.00;7.00;;;;;27.64;42.72;98823.88;6075894;28;96765;-75
2022/10/25 11:35:17;;;;;;;;;6.00;5.00;;;;;29.31;36.50;98828.88;6076430;28;96660;-74
2022/10/25 11:38:32;;;;;;;;;7.00;6.00;;;;;30.79;33.79;98826.25;6076437;28;96483;-73
2022/10/25 11:41:44;;;;;;;;;5.00;4.00;;;;;31.63;31.72;98830.41;6093710;28;96769;-74
2022/10/25 11:45:12;;;;;;;;;4.00;4.00;;;;;32.47;30.00;98832.66;6093856;28;96898;-74
2022/10/25 11:48:31;;;;;;;;;6.00;6.00;;;;;33.01;29.25;98827.78;6091679;28;96348;-74
2022/10/25 11:51:42;;;;;;;;;4.00;4.00;;;;;32.99;28.81;98826.50;6092756;28;96281;-71
2022/10/25 11:54:56;;;;;;;;;5.00;5.00;;;;;33.53;28.71;98827.06;6095487;28;96490;-74
2022/10/25 11:58:15;;;;;;;;;4.00;4.00;;;;;33.82;27.81;98808.75;6093103;28;96276;-74
2022/10/25 12:01:35;;;;;;;;;4.00;4.00;;;;;33.81;27.05;98820.34;6088778;28;96461;-74
2022/10/25 12:04:52;;;;;;;;;5.00;5.00;;;;;33.30;27.92;98819.91;6087912;28;96830;-75
2022/10/25 12:08:11;;;;;;;;;4.00;4.00;;;;;32.56;28.51;98808.94;6089887;28;96437;-75
2022/10/25 12:11:20;;;;;;;;;4.00;4.00;;;;;32.56;29.02;98805.34;6081809;28;97004;-75
2022/10/25 12:14:33;;;;;;;;;4.00;4.00;;;;;32.83;28.17;98803.50;6079583;28;97103;-75
2022/10/25 12:17:36;;;;;;;;;4.00;4.00;;;;;32.85;28.19;98803.91;6086150;28;97580;-74
2022/10/25 12:20:43;;;;;;;;;4.00;4.00;;;;;32.86;28.17;98803.56;6076391;28;96285;-75
2022/10/25 12:23:50;;;;;;;;;4.00;4.00;;;;;32.61;27.75;98794.69;6094198;28;96440;-76
2022/10/25 12:26:56;;;;;;;;;4.00;4.00;;;;;32.14;28.15;98799.72;6090776;28;96340;-74
2022/10/25 12:30:03;;;;;;;;;4.00;4.00;;;;;31.47;29.36;98798.16;6071031;28;96342;-75
2022/10/25 12:33:16;;;;;;;;;4.00;4.00;;;;;30.96;30.12;98793.28;6072980;28;96352;-75
2022/10/25 12:36:27;;;;;;;;;4.00;4.00;;;;;30.83;30.84;98780.63;6084297;28;97077;-74
2022/10/25 12:39:39;;;;;;;;;5.00;5.00;;;;;30.95;30.28;98782.50;6092396;28;96460;-73
2022/10/25 12:42:47;;;;;;;;;6.00;5.00;;;;;30.86;30.62;98793.81;6092555;28;96475;-72
2022/10/25 12:46:11;;;;;;;;;5.00;5.00;;;;;29.94;31.70;98801.50;6092211;28;96439;-75
2022/10/25 12:49:51;;;;;;;;;7.00;6.00;;;;;28.81;33.02;98790.25;6092086;28;96323;-69
2022/10/25 12:53:20;;;;;;;;;5.20;5.00;;;;;28.06;34.61;98792.25;6070382;28;96331;-74
2022/10/25 12:56:35;;;;;;;;;7.00;7.00;;;;;27.86;35.13;98799.41;6072536;28;97583;-76
2022/10/25 12:59:53;;;;;;;;;5.00;5.00;;;;;28.02;35.50;98802.41;6078868;28;96590;-76
2022/10/25 13:03:45;;;;;;;;;7.00;7.00;;;;;27.96;34.99;98803.75;6071918;28;96805;-73
2022/10/25 13:06:51;;;;;;;;;15.00;12.80;;;;;27.61;35.72;98799.63;6019766;29;96539;-74
2022/10/25 13:10:03;;;;;;;;;17.00;15.00;;;;;27.31;36.62;98796.81;6019323;28;96823;-74
2022/10/25 13:13:15;;;;;;;;;19.00;16.00;;;;;26.88;36.99;98797.00;6071206;28;96663;-74
2022/10/25 13:16:26;;;;;;;;;18.60;17.40;;;;;26.50;37.88;98787.81;6086324;28;96010;-75
2022/10/25 13:19:31;;;;;;;;;11.60;11.60;;;;;26.53;38.23;98789.94;6061757;28;97172;-75
2022/10/25 13:22:54;;;;;;;;;12.00;10.50;;;;;26.35;38.61;98783.59;6075448;28;96979;-74
2022/10/25 13:26:07;;;;;;;;;8.25;8.00;;;;;26.41;38.90;98782.28;6073528;28;96453;-73
2022/10/25 13:29:43;;;;;;;;;6.00;6.00;;;;;26.42;38.14;98780.34;6080955;28;96477;-76
2022/10/25 13:33:26;;;;;;;;;5.40;5.00;;;;;26.58;38.44;98782.28;6079226;28;96632;-74
2022/10/25 13:36:50;;;;;;;;;5.00;5.00;;;;;26.67;38.28;98782.25;6079967;28;97129;-76
2022/10/25 13:39:54;;;;;;;;;5.00;5.00;;;;;26.91;38.05;98798.31;6074130;28;96362;-75
2022/10/25 13:43:01;;;;;;;;;4.20;4.00;;;;;27.06;37.20;98797.75;6075668;28;96556;-73
2022/10/25 13:46:05;;;;;;;;;6.00;5.00;;;;;27.24;37.27;98788.22;6080181;28;96347;-74
2022/10/25 13:49:42;;;;;;;;;6.00;6.00;;;;;27.39;36.73;98795.16;6079565;28;96504;-71
2022/10/25 13:52:56;;;;;;;;;4.00;4.00;;;;;27.34;36.56;98789.78;6001924;29;96498;-76
2022/10/25 13:56:07;;;;;;;;;4.00;4.00;;;;;27.38;36.76;98799.88;6009219;29;97241;-75
2022/10/25 13:59:36;;;;;;;;;4.00;4.00;;;;;27.46;36.60;98796.25;6018131;28;96590;-73
2022/10/25 14:03:04;;;;;;;;;5.00;5.00;;;;;27.32;36.79;98797.66;6005372;28;96739;-76
2022/10/25 14:06:25;;;;;;;;;6.00;6.00;;;;;27.00;37.33;98799.06;5979560;29;97354;-74
2022/10/25 14:09:35;;;;;;;;;7.00;6.50;;;;;26.54;37.91;98803.41;5996957;29;96532;-76
2022/10/25 14:12:43;;;;;;;;;5.00;5.00;;;;;26.12;38.35;98793.19;6004437;29;97278;-75
2022/10/25 14:15:56;;;;;;;;;5.00;5.00;;;;;26.06;39.09;98809.13;6017077;29;96557;-75
2022/10/25 14:19:05;;;;;;;;;6.00;6.00;;;;;25.69;38.87;98812.50;6017745;29;97417;-73
2022/10/25 14:22:16;;;;;;;;;6.00;6.00;;;;;25.48;39.62;98816.97;6017544;29;96553;-75
2022/10/25 14:25:23;;;;;;;;;4.00;4.00;;;;;25.20;40.23;98806.19;6021185;28;96585;-75
2022/10/25 14:28:29;;;;;;;;;6.25;5.25;;;;;25.01;40.28;98792.66;6087722;28;96371;-75
2022/10/25 14:31:33;;;;;;;;;7.00;7.00;;;;;24.96;40.86;98819.56;6090119;28;96491;-75
2022/10/25 14:34:36;;;;;;;;;6.00;6.00;;;;;24.78;41.21;98818.59;6090924;28;96875;-74
2022/10/25 14:37:43;;;;;;;;;5.20;5.20;;;;;24.65;41.42;98822.28;6070379;28;96557;-76